Time;durP1;ratioP1;P1;durP2;ratioP2;P2;SDS_P1;SDS_P2;PMS_P1;PMS_P2;Temp;Humidity;BMP_temperature;BMP_pressure;BME280_temperature;BME280_humidity;BME280_pressure;Samples;Min_cycle;Max_cycle;Signal;HPM_P1;HPM_P2
2023/08/05 00:02:23;;;;;;;4.97;4.10;;;14.90;99.90;;;;;;5028233;28;20473;-45
2023/08/05 00:04:49;;;;;;;8.10;4.10;;;14.90;99.90;;;;;;5028116;28;20034;-45
2023/08/05 00:07:14;;;;;;;5.90;3.55;;;14.80;99.90;;;;;;5028219;28;20024;-46
2023/08/05 00:09:40;;;;;;;7.05;4.82;;;14.80;99.90;;;;;;5028244;28;20033;-46
2023/08/05 00:12:06;;;;;;;6.45;4.60;;;14.80;99.90;;;;;;5028092;28;20026;-46
2023/08/05 00:14:34;;;;;;;7.55;4.25;;;14.70;99.90;;;;;;5027340;28;20069;-46
2023/08/05 00:16:59;;;;;;;5.03;3.63;;;14.70;99.90;;;;;;5027091;28;20022;-46
2023/08/05 00:19:25;;;;;;;6.20;4.28;;;14.70;99.90;;;;;;5026736;28;20045;-45
2023/08/05 00:21:50;;;;;;;6.22;3.83;;;14.60;99.90;;;;;;5026630;28;20026;-46
2023/08/05 00:24:16;;;;;;;6.80;4.03;;;14.60;99.90;;;;;;5026273;28;20547;-46
2023/08/05 00:26:41;;;;;;;8.60;4.82;;;14.60;99.90;;;;;;5026956;28;20021;-46
2023/08/05 00:29:07;;;;;;;4.55;3.65;;;14.60;99.90;;;;;;5026795;28;20053;-45
2023/08/05 00:31:32;;;;;;;6.75;4.80;;;14.60;99.90;;;;;;5026656;28;20154;-46
2023/08/05 00:33:58;;;;;;;8.35;4.05;;;14.50;99.90;;;;;;5029580;28;20428;-45
2023/08/05 00:36:24;;;;;;;7.20;4.40;;;14.60;99.90;;;;;;5013008;28;20029;-46
2023/08/05 00:38:49;;;;;;;7.10;4.38;;;14.50;99.90;;;;;;5030698;28;20044;-46
2023/08/05 00:41:15;;;;;;;8.27;3.80;;;14.50;99.90;;;;;;5030907;28;20025;-48
2023/08/05 00:43:40;;;;;;;5.50;4.28;;;14.50;99.90;;;;;;5030004;28;20476;-46
2023/08/05 00:46:08;;;;;;;6.95;4.22;;;14.40;99.90;;;;;;5030503;28;20041;-45
2023/08/05 00:48:33;;;;;;;6.93;4.75;;;14.40;99.90;;;;;;5031373;28;20017;-47
2023/08/05 00:50:59;;;;;;;6.78;4.32;;;14.40;99.90;;;;;;5031492;28;20428;-47
2023/08/05 00:53:25;;;;;;;8.38;4.93;;;14.30;99.90;;;;;;5030969;28;20112;-48
2023/08/05 00:55:53;;;;;;;6.20;4.90;;;14.30;99.90;;;;;;5031213;28;20128;-46
2023/08/05 00:58:20;;;;;;;8.30;4.88;;;14.30;99.90;;;;;;5031053;28;20365;-49
2023/08/05 01:00:46;;;;;;;6.75;5.30;;;14.30;99.90;;;;;;5031012;28;20017;-48
2023/08/05 01:03:11;;;;;;;5.57;4.72;;;14.30;99.90;;;;;;5030445;28;20028;-48
2023/08/05 01:05:38;;;;;;;9.65;5.35;;;14.30;99.90;;;;;;5012247;28;20472;-46
2023/08/05 01:08:05;;;;;;;9.13;4.65;;;14.30;99.90;;;;;;5030805;28;20381;-46
2023/08/05 01:10:31;;;;;;;11.85;5.35;;;14.30;99.90;;;;;;5013161;28;20028;-47
2023/08/05 01:12:56;;;;;;;6.18;4.95;;;14.20;99.90;;;;;;5030070;28;20553;-48
2023/08/05 01:15:22;;;;;;;12.88;6.13;;;14.20;99.90;;;;;;5031096;28;20021;-46
2023/08/05 01:17:53;;;;;;;9.93;5.25;;;14.20;99.90;;;;;;5030895;28;20084;-47
2023/08/05 01:20:19;;;;;;;;;;;14.20;99.90;;;;;;5031208;28;20092;-45
2023/08/05 01:22:48;;;;;;;6.18;4.63;;;14.20;99.90;;;;;;5030133;28;20315;-49
2023/08/05 01:25:28;;;;;;;7.15;5.32;;;14.10;99.90;;;;;;5030452;28;20128;-45
2023/08/05 01:27:55;;;;;;;8.65;5.00;;;14.10;99.90;;;;;;5030753;28;20044;-45
2023/08/05 01:30:25;;;;;;;7.05;5.47;;;14.10;99.90;;;;;;5030634;28;20113;-46
2023/08/05 01:32:52;;;;;;;9.55;4.95;;;14.10;99.90;;;;;;5030120;28;20035;-46
2023/08/05 01:35:20;;;;;;;5.15;4.45;;;14.00;99.90;;;;;;5030528;28;20028;-46
2023/08/05 01:37:46;;;;;;;8.77;4.88;;;13.90;99.90;;;;;;5030533;28;20022;-46
2023/08/05 01:40:12;;;;;;;5.95;4.57;;;13.90;99.90;;;;;;5030835;28;20025;-46
2023/08/05 01:42:38;;;;;;;7.00;5.07;;;13.80;99.90;;;;;;5012131;28;20030;-46
2023/08/05 01:45:04;;;;;;;8.13;5.30;;;13.90;99.90;;;;;;5011917;28;20026;-45
2023/08/05 01:47:29;;;;;;;6.82;4.88;;;13.80;99.90;;;;;;5030379;28;20551;-46
2023/08/05 01:49:55;;;;;;;8.38;5.43;;;13.80;99.90;;;;;;5012363;28;20116;-47
2023/08/05 01:52:20;;;;;;;7.82;5.80;;;13.80;99.90;;;;;;5030349;28;20033;-46
2023/08/05 01:54:46;;;;;;;7.45;5.03;;;13.80;99.90;;;;;;5029789;28;20435;-45
2023/08/05 01:57:11;;;;;;;6.78;5.50;;;13.70;99.90;;;;;;5030345;28;20128;-46
2023/08/05 01:59:37;;;;;;;7.57;4.90;;;13.70;99.90;;;;;;5030167;28;20025;-46
2023/08/05 02:02:02;;;;;;;7.80;5.10;;;13.70;99.90;;;;;;5029989;28;20052;-46
2023/08/05 02:04:28;;;;;;;9.27;5.82;;;13.70;99.90;;;;;;5029722;28;20082;-45
2023/08/05 02:06:53;;;;;;;16.25;6.45;;;13.70;99.90;;;;;;5029758;28;20321;-46
2023/08/05 02:09:19;;;;;;;9.32;5.45;;;13.70;99.90;;;;;;5029666;28;20491;-45
2023/08/05 02:11:44;;;;;;;9.13;6.32;;;13.70;99.90;;;;;;5029716;28;20033;-46
2023/08/05 02:14:10;;;;;;;10.45;5.43;;;13.70;99.90;;;;;;5028867;28;20542;-46
2023/08/05 02:16:35;;;;;;;7.53;5.53;;;13.70;99.90;;;;;;5011945;28;20144;-47
2023/08/05 02:19:01;;;;;;;10.85;5.80;;;13.60;99.90;;;;;;5029795;28;20334;-45
2023/08/05 02:21:26;;;;;;;6.97;5.20;;;13.60;99.90;;;;;;5011827;28;20037;-45
2023/08/05 02:23:52;;;;;;;8.70;5.43;;;13.60;99.90;;;;;;5028859;28;20395;-45
2023/08/05 02:26:18;;;;;;;8.15;5.70;;;13.60;99.90;;;;;;5011629;28;20032;-45
2023/08/05 02:28:45;;;;;;;9.98;5.63;;;13.60;99.90;;;;;;5029478;28;20464;-45
2023/08/05 02:31:11;;;;;;;11.75;5.45;;;13.60;99.90;;;;;;5029169;28;20074;-45
2023/08/05 02:33:36;;;;;;;11.15;5.93;;;13.60;99.90;;;;;;5028835;28;20021;-45
2023/08/05 02:36:03;;;;;;;8.05;5.65;;;13.60;99.90;;;;;;5011577;28;20057;-45
2023/08/05 02:38:29;;;;;;;6.50;5.50;;;13.50;99.90;;;;;;5029254;28;20468;-46
2023/08/05 02:40:56;;;;;;;11.98;6.15;;;13.50;99.90;;;;;;5011702;28;20041;-49
2023/08/05 02:43:21;;;;;;;5.85;5.25;;;13.50;99.90;;;;;;5027817;28;20018;-46
2023/08/05 02:45:57;;;;;;;9.00;7.07;;;13.50;99.90;;;;;;5029113;28;20495;-45
2023/08/05 02:48:23;;;;;;;11.75;6.25;;;13.50;99.90;;;;;;5028898;28;20033;-47
2023/08/05 02:50:53;;;;;;;11.27;6.13;;;13.50;99.90;;;;;;5028837;28;20026;-46
2023/08/05 02:53:18;;;;;;;9.45;6.03;;;13.40;99.90;;;;;;5028217;28;20504;-45
2023/08/05 02:55:44;;;;;;;10.38;6.20;;;13.40;99.90;;;;;;5028337;28;20036;-46
2023/08/05 02:58:10;;;;;;;7.63;5.88;;;13.40;99.90;;;;;;5029255;28;20375;-46
2023/08/05 03:00:36;;;;;;;7.00;5.30;;;13.30;99.90;;;;;;5029092;28;20033;-46
2023/08/05 03:03:02;;;;;;;8.65;6.22;;;13.30;99.90;;;;;;5028360;28;20365;-45
2023/08/05 03:05:27;;;;;;;8.55;6.10;;;13.30;99.90;;;;;;5028906;28;20174;-46
2023/08/05 03:07:53;;;;;;;12.07;6.03;;;13.30;99.90;;;;;;5028609;28;20014;-47
2023/08/05 03:10:19;;;;;;;6.72;5.32;;;13.20;99.90;;;;;;5028748;28;20093;-45
2023/08/05 03:12:44;;;;;;;8.23;5.63;;;13.20;99.90;;;;;;5027970;28;20030;-45
2023/08/05 03:15:10;;;;;;;9.95;5.90;;;13.20;99.90;;;;;;5028470;28;20022;-45
2023/08/05 03:17:36;;;;;;;8.00;6.25;;;13.20;99.90;;;;;;5028866;28;20029;-45
2023/08/05 03:20:05;;;;;;;9.30;5.88;;;13.20;99.90;;;;;;5028531;28;20033;-45
2023/08/05 03:22:31;;;;;;;7.30;4.93;;;13.20;99.90;;;;;;5028352;28;20485;-45
2023/08/05 03:25:01;;;;;;;7.75;6.18;;;13.10;99.90;;;;;;5010659;28;20109;-48
2023/08/05 03:27:26;;;;;;;8.20;5.88;;;13.20;99.90;;;;;;5028647;28;20032;-48
2023/08/05 03:29:52;;;;;;;13.88;6.32;;;13.30;99.90;;;;;;5010944;28;20033;-46
2023/08/05 03:32:17;;;;;;;9.50;6.35;;;13.30;99.90;;;;;;5028735;28;20399;-45
2023/08/05 03:34:44;;;;;;;10.30;5.80;;;13.30;99.90;;;;;;5027861;28;20068;-44
2023/08/05 03:37:09;;;;;;;7.43;5.20;;;13.30;99.90;;;;;;5028394;28;20014;-47
2023/08/05 03:39:35;;;;;;;9.93;5.78;;;13.30;99.90;;;;;;5028462;28;20049;-45
2023/08/05 03:42:00;;;;;;;8.85;5.72;;;13.40;99.90;;;;;;5028495;28;20020;-46
2023/08/05 03:44:26;;;;;;;9.50;6.25;;;13.40;99.90;;;;;;5028054;28;20658;-45
2023/08/05 03:46:51;;;;;;;11.25;6.32;;;13.40;99.90;;;;;;5028471;28;20033;-46
2023/08/05 03:49:17;;;;;;;7.97;6.50;;;13.50;99.90;;;;;;5028526;28;20088;-45
2023/08/05 03:51:43;;;;;;;10.15;5.57;;;13.50;99.90;;;;;;5010608;28;20067;-46
2023/08/05 03:54:09;;;;;;;9.45;6.43;;;13.60;99.90;;;;;;5027739;28;20415;-45
2023/08/05 03:56:34;;;;;;;6.75;5.50;;;13.60;99.90;;;;;;5028370;28;20021;-46
2023/08/05 03:59:00;;;;;;;11.63;6.68;;;13.60;99.90;;;;;;5028167;28;20030;-45
2023/08/05 04:01:26;;;;;;;11.93;6.88;;;13.70;99.90;;;;;;5028480;28;20472;-45
2023/08/05 04:03:52;;;;;;;9.48;6.35;;;13.70;99.90;;;;;;5028044;28;20048;-48
2023/08/05 04:06:20;;;;;;;10.05;6.70;;;13.70;99.90;;;;;;5028508;28;20064;-46
2023/08/05 04:08:48;;;;;;;12.45;7.35;;;13.70;99.90;;;;;;5032457;28;20030;-45
2023/08/05 04:11:14;;;;;;;12.27;8.45;;;13.80;99.90;;;;;;5032376;28;20090;-46
2023/08/05 04:13:39;;;;;;;11.00;7.25;;;13.80;99.90;;;;;;5031658;28;20037;-48
2023/08/05 04:16:06;;;;;;;10.43;7.35;;;13.90;99.90;;;;;;5014148;28;20484;-45
2023/08/05 04:18:35;;;;;;;9.88;7.00;;;13.90;99.90;;;;;;5031892;28;20187;-46
2023/08/05 04:21:03;;;;;;;10.13;6.55;;;13.90;99.90;;;;;;5032191;28;20052;-45
2023/08/05 04:23:31;;;;;;;9.52;6.65;;;13.90;99.90;;;;;;5031339;28;20389;-47
2023/08/05 04:25:58;;;;;;;11.07;7.25;;;14.00;99.90;;;;;;5032035;28;20446;-44
2023/08/05 04:28:23;;;;;;;11.60;7.15;;;14.00;99.90;;;;;;5031752;28;20033;-46
2023/08/05 04:30:49;;;;;;;13.23;7.60;;;14.10;99.90;;;;;;5031963;28;20095;-46
2023/08/05 04:33:14;;;;;;;13.25;6.97;;;14.10;99.90;;;;;;5030834;28;20044;-46
2023/08/05 04:35:49;;;;;;;12.90;7.45;;;14.20;99.90;;;;;;5031778;28;20349;-47
2023/08/05 04:38:16;;;;;;;9.52;6.18;;;14.20;99.90;;;;;;5031453;28;20025;-49
2023/08/05 04:40:42;;;;;;;8.10;6.32;;;14.20;99.90;;;;;;5031656;28;20674;-46
2023/08/05 04:43:08;;;;;;;9.20;5.82;;;14.20;99.90;;;;;;5030900;28;20120;-49
2023/08/05 04:45:35;;;;;;;12.10;6.75;;;14.20;99.90;;;;;;5031588;28;20029;-48
2023/08/05 04:48:00;;;;;;;8.35;6.13;;;14.30;99.90;;;;;;5031277;28;20031;-46
2023/08/05 04:50:26;;;;;;;10.70;6.78;;;14.30;99.90;;;;;;5031273;28;20025;-53
2023/08/05 04:52:51;;;;;;;8.82;6.35;;;14.30;99.90;;;;;;5030967;28;20439;-45
2023/08/05 04:55:17;;;;;;;8.63;6.32;;;14.30;99.90;;;;;;5031092;28;20091;-46
2023/08/05 04:57:43;;;;;;;10.57;7.35;;;14.40;99.90;;;;;;5031188;28;20112;-47
2023/08/05 05:00:09;;;;;;;11.82;6.68;;;14.30;99.90;;;;;;5031249;28;20021;-46
2023/08/05 05:02:35;;;;;;;7.40;5.68;;;14.30;99.90;;;;;;5030860;28;20044;-47
2023/08/05 05:05:03;;;;;;;11.85;7.20;;;14.40;99.90;;;;;;5030753;28;20022;-46
2023/08/05 05:07:28;;;;;;;7.88;5.57;;;14.40;99.90;;;;;;5030676;28;20373;-48
2023/08/05 05:09:54;;;;;;;9.05;6.15;;;14.50;99.90;;;;;;5030648;28;20032;-48
2023/08/05 05:12:19;;;;;;;9.05;6.38;;;14.50;99.90;;;;;;5031003;28;20030;-45
2023/08/05 05:14:45;;;;;;;11.00;6.57;;;14.40;99.90;;;;;;5029725;28;20036;-48
2023/08/05 05:17:17;;;;;;;12.10;6.68;;;14.50;99.90;;;;;;5030506;28;20071;-48
2023/08/05 05:19:43;;;;;;;9.90;5.82;;;14.60;99.90;;;;;;5011684;28;20049;-46
2023/08/05 05:22:14;;;;;;;10.80;5.90;;;14.60;99.90;;;;;;5030351;28;20024;-49
2023/08/05 05:24:40;;;;;;;9.32;6.35;;;14.70;99.90;;;;;;5028171;28;20026;-47
2023/08/05 05:27:06;;;;;;;8.45;5.75;;;14.70;99.90;;;;;;5030140;28;20044;-50
2023/08/05 05:29:31;;;;;;;9.52;6.03;;;14.80;99.90;;;;;;5012445;28;20076;-49
2023/08/05 05:31:57;;;;;;;6.97;5.68;;;14.80;99.90;;;;;;5030162;28;20030;-46
2023/08/05 05:34:22;;;;;;;14.25;6.38;;;14.90;99.90;;;;;;5029905;28;20104;-46
2023/08/05 05:36:48;;;;;;;13.32;6.28;;;14.80;99.90;;;;;;5030357;28;20029;-49
2023/08/05 05:39:13;;;;;;;13.95;6.22;;;14.80;99.90;;;;;;5012570;28;20055;-45
2023/08/05 05:41:39;;;;;;;10.70;6.45;;;14.80;99.90;;;;;;5030084;28;20387;-47
2023/08/05 05:44:04;;;;;;;8.95;5.63;;;14.80;99.90;;;;;;5029406;28;20044;-46
2023/08/05 05:46:32;;;;;;;11.13;6.30;;;14.80;99.90;;;;;;5012164;28;20018;-47
2023/08/05 05:48:58;;;;;;;7.40;5.63;;;14.90;99.90;;;;;;5029980;28;20100;-47
2023/08/05 05:51:23;;;;;;;8.60;5.45;;;15.00;99.90;;;;;;5030023;28;20029;-45
2023/08/05 05:53:51;;;;;;;7.60;5.18;;;15.00;99.90;;;;;;5011275;28;20484;-47
2023/08/05 05:56:16;;;;;;;6.32;4.90;;;15.10;99.90;;;;;;5029867;28;20019;-49
2023/08/05 05:58:42;;;;;;;11.00;5.30;;;15.20;99.90;;;;;;5029028;28;20639;-47
2023/08/05 06:01:07;;;;;;;6.80;5.10;;;15.20;99.90;;;;;;5028308;28;20036;-47
2023/08/05 06:03:34;;;;;;;8.27;5.03;;;15.30;99.90;;;;;;5028561;28;20040;-46
2023/08/05 06:06:00;;;;;;;9.57;5.15;;;15.30;99.90;;;;;;5029370;28;20024;-46
2023/08/05 06:08:26;;;;;;;8.18;5.47;;;15.30;99.90;;;;;;5029304;28;20033;-46
2023/08/05 06:10:52;;;;;;;9.82;5.78;;;15.40;99.90;;;;;;5029346;28;20122;-47
2023/08/05 06:13:17;;;;;;;9.38;5.13;;;15.40;99.90;;;;;;5028637;28;20018;-46
2023/08/05 06:15:43;;;;;;;9.63;5.65;;;15.50;99.90;;;;;;5013088;28;20116;-45
2023/08/05 06:18:09;;;;;;;10.73;4.35;;;15.50;99.90;;;;;;5011499;28;20471;-47
2023/08/05 06:20:34;;;;;;;5.63;4.32;;;15.70;99.90;;;;;;5029195;28;20029;-48
2023/08/05 06:23:00;;;;;;;10.50;4.65;;;15.80;99.90;;;;;;5028921;28;20108;-47
2023/08/05 06:25:26;;;;;;;8.93;4.55;;;15.90;99.90;;;;;;5028930;28;20403;-46
2023/08/05 06:27:52;;;;;;;8.88;5.05;;;15.90;99.90;;;;;;5029374;28;20318;-46
2023/08/05 06:30:18;;;;;;;7.03;4.50;;;16.00;99.90;;;;;;5027878;28;20082;-47
2023/08/05 06:32:43;;;;;;;7.15;3.85;;;16.00;99.90;;;;;;5028846;28;20086;-46
2023/08/05 06:35:09;;;;;;;12.25;5.00;;;16.10;99.90;;;;;;5028925;28;20148;-49
2023/08/05 06:37:34;;;;;;;9.10;4.47;;;16.10;99.90;;;;;;5029205;28;20148;-48
2023/08/05 06:39:59;;;;;;;14.23;5.13;;;16.10;99.90;;;;;;5029586;28;20086;-48
2023/08/05 06:42:26;;;;;;;10.98;5.05;;;16.00;99.90;;;;;;5028860;28;20025;-47
2023/08/05 06:44:52;;;;;;;6.63;4.35;;;16.10;99.90;;;;;;5029059;28;20033;-48
2023/08/05 06:47:18;;;;;;;7.57;3.85;;;16.30;99.90;;;;;;5029069;28;20029;-47
2023/08/05 06:49:43;;;;;;;6.55;4.35;;;16.50;99.90;;;;;;5028937;28;20323;-47
2023/08/05 06:52:09;;;;;;;9.82;4.35;;;16.70;99.90;;;;;;5029237;28;20452;-46
2023/08/05 06:54:35;;;;;;;8.38;4.43;;;16.80;99.90;;;;;;5028216;28;20025;-46
2023/08/05 06:57:00;;;;;;;6.38;4.13;;;17.10;99.90;;;;;;5028816;28;20029;-49
2023/08/05 06:59:27;;;;;;;9.15;3.90;;;17.20;99.90;;;;;;5028885;28;20499;-46
2023/08/05 07:01:53;;;;;;;9.52;4.25;;;17.50;99.90;;;;;;5029175;28;20075;-46
2023/08/05 07:04:18;;;;;;;7.45;3.72;;;17.50;99.90;;;;;;5028253;28;20476;-46
2023/08/05 07:06:44;;;;;;;6.47;3.78;;;17.70;99.90;;;;;;5011181;28;20057;-45
2023/08/05 07:09:10;;;;;;;5.90;3.50;;;17.80;99.90;;;;;;5027762;28;20025;-47
2023/08/05 07:11:36;;;;;;;8.57;3.80;;;17.80;99.90;;;;;;5028112;28;20038;-47
2023/08/05 07:14:01;;;;;;;7.47;4.28;;;17.80;99.90;;;;;;5027954;28;20036;-46
2023/08/05 07:16:27;;;;;;;5.53;3.75;;;17.70;99.90;;;;;;5028929;28;20480;-46
2023/08/05 07:18:53;;;;;;;6.07;3.83;;;17.60;99.90;;;;;;5028629;28;20663;-47
2023/08/05 07:21:18;;;;;;;7.75;3.72;;;17.40;99.90;;;;;;5028587;28;20104;-47
2023/08/05 07:23:44;;;;;;;6.78;3.10;;;17.40;99.90;;;;;;5010289;28;20101;-48
2023/08/05 07:26:10;;;;;;;7.70;3.90;;;17.30;99.90;;;;;;5010410;28;20067;-47
2023/08/05 07:28:35;;;;;;;6.47;3.70;;;17.50;99.90;;;;;;5028161;28;20025;-47
2023/08/05 07:31:04;;;;;;;7.15;4.10;;;17.50;99.90;;;;;;5028419;28;20033;-47
2023/08/05 07:33:30;;;;;;;4.30;2.85;;;17.60;99.90;;;;;;5035264;28;20079;-47
2023/08/05 07:35:56;;;;;;;6.43;3.38;;;17.70;99.90;;;;;;5010507;28;20022;-46
2023/08/05 07:38:25;;;;;;;6.57;3.13;;;17.70;99.90;;;;;;5027956;28;20641;-46
2023/08/05 07:40:54;;;;;;;7.65;3.22;;;17.60;99.90;;;;;;5027703;28;20273;-47
2023/08/05 07:43:23;;;;;;;7.28;2.88;;;17.70;99.90;;;;;;5013410;28;20065;-46
2023/08/05 07:45:52;;;;;;;7.65;3.58;;;17.70;99.90;;;;;;5032283;28;20025;-46
2023/08/05 07:48:18;;;;;;;5.00;2.80;;;17.80;99.90;;;;;;5032112;28;20499;-47
2023/08/05 07:50:43;;;;;;;5.93;2.80;;;17.80;99.90;;;;;;5014448;28;20022;-46
2023/08/05 07:53:09;;;;;;;3.17;2.45;;;17.90;99.90;;;;;;5031843;28;20028;-46
2023/08/05 07:55:37;;;;;;;4.38;2.75;;;18.00;99.90;;;;;;5032063;28;20025;-46
2023/08/05 07:58:04;;;;;;;9.20;3.10;;;18.10;99.90;;;;;;5032176;28;20022;-46
2023/08/05 08:00:30;;;;;;;7.32;3.38;;;18.20;99.90;;;;;;5031929;28;20072;-46
2023/08/05 08:02:56;;;;;;;3.60;2.40;;;18.40;99.90;;;;;;5031269;28;20083;-47
2023/08/05 08:05:21;;;;;;;5.22;2.63;;;18.60;99.90;;;;;;5031607;28;20463;-45
2023/08/05 08:07:47;;;;;;;11.20;2.83;;;18.90;99.90;;;;;;5031752;28;20029;-46
2023/08/05 08:10:13;;;;;;;5.82;3.05;;;19.10;99.90;;;;;;5031592;28;20036;-46
2023/08/05 08:12:39;;;;;;;4.90;2.85;;;19.20;99.90;;;;;;5031417;28;20045;-46
2023/08/05 08:15:05;;;;;;;6.53;2.55;;;19.50;99.90;;;;;;5031406;28;20033;-46
2023/08/05 08:17:30;;;;;;;5.30;2.67;;;19.80;99.90;;;;;;5031481;28;20032;-46
2023/08/05 08:19:56;;;;;;;5.75;2.08;;;20.00;99.90;;;;;;5031458;28;20022;-46
2023/08/05 08:22:22;;;;;;;4.70;2.50;;;20.30;99.90;;;;;;5027313;28;20112;-46
2023/08/05 08:24:47;;;;;;;9.73;2.85;;;20.40;99.90;;;;;;5030227;28;20025;-47
2023/08/05 08:27:13;;;;;;;7.78;2.35;;;20.40;99.90;;;;;;5030688;28;20457;-47
2023/08/05 08:29:38;;;;;;;7.10;2.55;;;20.50;99.90;;;;;;5030864;28;20065;-47
2023/08/05 08:32:04;;;;;;;5.05;2.65;;;20.90;99.90;;;;;;5030429;28;20037;-49
2023/08/05 08:34:30;;;;;;;3.90;2.30;;;21.20;99.90;;;;;;5029909;28;20457;-49
2023/08/05 08:36:55;;;;;;;5.05;2.22;;;21.70;99.90;;;;;;5030347;28;20064;-50
2023/08/05 08:39:21;;;;;;;5.25;2.40;;;22.70;99.80;;;;;;5012269;28;20532;-49
2023/08/05 08:41:49;;;;;;;3.60;2.08;;;23.20;98.00;;;;;;5030300;28;20033;-48
2023/08/05 08:44:16;;;;;;;3.00;1.80;;;23.40;97.20;;;;;;5029719;28;20081;-48
2023/08/05 08:46:44;;;;;;;6.55;2.42;;;24.30;97.20;;;;;;5030645;28;20041;-48
2023/08/05 08:49:11;;;;;;;2.72;1.55;;;24.80;92.10;;;;;;5030253;28;20396;-49
2023/08/05 08:51:38;;;;;;;6.88;3.00;;;25.80;91.20;;;;;;5034489;28;20074;-48
2023/08/05 08:54:04;;;;;;;5.55;2.35;;;26.20;87.60;;;;;;5040044;28;20021;-50
2023/08/05 08:56:31;;;;;;;2.97;1.60;;;27.40;86.40;;;;;;5030448;28;20030;-51
2023/08/05 08:58:56;;;;;;;3.08;1.80;;;28.20;85.50;;;;;;5030321;28;20049;-53
2023/08/05 09:01:22;;;;;;;6.15;2.20;;;28.30;82.90;;;;;;5012239;28;20534;-51
2023/08/05 09:03:51;;;;;;;4.15;1.95;;;29.70;78.80;;;;;;5029311;28;20076;-52
2023/08/05 09:06:19;;;;;;;4.25;2.05;;;30.00;79.20;;;;;;5030105;28;20033;-51
2023/08/05 09:08:45;;;;;;;5.25;2.47;;;31.10;77.20;;;;;;5030133;28;20033;-51
2023/08/05 09:11:11;;;;;;;5.03;2.00;;;31.50;71.90;;;;;;5012479;28;20033;-51
2023/08/05 09:13:38;;;;;;;2.60;1.67;;;31.50;65.50;;;;;;5012030;28;20029;-52
2023/08/05 09:16:04;;;;;;;2.95;1.67;;;30.80;65.60;;;;;;5011271;28;20025;-51
2023/08/05 09:18:30;;;;;;;2.85;1.60;;;31.60;65.00;;;;;;5029906;28;20499;-51
2023/08/05 09:21:00;;;;;;;2.72;1.70;;;31.40;63.70;;;;;;5030622;28;20509;-48
2023/08/05 09:23:26;;;;;;;5.30;1.55;;;30.80;61.20;;;;;;5029837;28;20127;-51
2023/08/05 09:25:51;;;;;;;4.50;1.65;;;29.70;63.10;;;;;;5030122;28;20049;-50
2023/08/05 09:28:30;;;;;;;2.97;1.70;;;29.20;62.90;;;;;;5029762;28;20037;-49
2023/08/05 09:31:16;;;;;;;2.67;1.70;;;27.60;65.40;;;;;;5031886;28;20430;-51
2023/08/05 09:33:42;;;;;;;3.92;2.00;;;26.20;67.10;;;;;;5022940;28;20065;-49
2023/08/05 09:36:12;;;;;;;3.80;2.15;;;25.30;71.60;;;;;;5030100;28;20021;-49
2023/08/05 09:38:39;;;;;;;3.35;2.03;;;24.90;72.80;;;;;;5027127;28;20033;-47
2023/08/05 09:41:06;;;;;;;4.40;2.30;;;24.20;73.50;;;;;;5029676;28;20120;-48
2023/08/05 09:43:34;;;;;;;3.25;2.30;;;23.80;75.20;;;;;;5028843;28;20160;-48
2023/08/05 09:46:05;;;;;;;5.32;2.03;;;23.50;79.50;;;;;;5029535;28;20045;-48
2023/08/05 09:48:40;;;;;;;4.68;2.33;;;23.40;79.00;;;;;;5028907;28;20029;-48
2023/08/05 09:51:06;;;;;;;3.63;2.38;;;23.00;78.20;;;;;;4996799;28;20018;-49
2023/08/05 09:53:35;;;;;;;4.55;2.17;;;22.70;80.20;;;;;;5028871;28;20029;-47
2023/08/05 09:56:04;;;;;;;4.45;2.83;;;22.70;82.40;;;;;;5007001;28;20032;-48
2023/08/05 09:58:32;;;;;;;2.45;2.08;;;22.90;80.60;;;;;;5029422;28;20522;-49
2023/08/05 10:00:58;;;;;;;4.43;2.60;;;22.70;78.90;;;;;;5029724;28;20111;-50
2023/08/05 10:03:26;;;;;;;6.30;2.35;;;22.60;78.90;;;;;;5028597;28;20418;-49
2023/08/05 10:05:55;;;;;;;3.13;2.00;;;22.40;79.20;;;;;;5006139;28;20061;-49
2023/08/05 10:08:24;;;;;;;4.32;2.30;;;22.20;80.10;;;;;;5028727;28;20026;-48
2023/08/05 10:10:50;;;;;;;7.00;2.20;;;21.70;81.40;;;;;;5011029;28;20032;-48
2023/08/05 10:13:17;;;;;;;3.08;2.00;;;22.00;81.80;;;;;;5028365;28;20471;-49
2023/08/05 10:15:48;;;;;;;3.67;2.17;;;22.80;82.50;;;;;;5029017;28;20395;-51
2023/08/05 10:18:17;;;;;;;4.00;2.40;;;23.00;81.50;;;;;;5028886;28;20026;-48
2023/08/05 10:20:48;;;;;;;5.03;2.20;;;23.30;81.80;;;;;;5029045;28;20384;-48
2023/08/05 10:23:13;;;;;;;4.40;2.85;;;23.40;82.00;;;;;;5028283;28;20105;-47
2023/08/05 10:25:45;;;;;;;4.22;2.20;;;23.30;81.50;;;;;;5029053;28;20105;-48
2023/08/05 10:28:33;;;;;;;4.03;2.08;;;23.10;80.20;;;;;;5027131;28;20013;-47
2023/08/05 10:31:03;;;;;;;5.20;2.40;;;23.80;83.00;;;;;;5028244;28;20020;-50
2023/08/05 10:33:28;;;;;;;4.43;2.50;;;24.10;80.60;;;;;;5028003;28;20116;-48
2023/08/05 10:36:07;;;;;;;4.68;2.45;;;24.10;82.30;;;;;;5029533;28;20394;-51
2023/08/05 10:38:42;;;;;;;2.08;1.90;;;24.00;82.70;;;;;;5029583;28;20487;-51
2023/08/05 10:41:10;;;;;;;6.72;2.75;;;23.90;83.80;;;;;;5029476;28;20419;-51
2023/08/05 10:43:41;;;;;;;5.47;2.00;;;23.70;80.40;;;;;;5020895;28;20013;-49
2023/08/05 10:46:06;;;;;;;3.90;2.45;;;23.70;81.80;;;;;;5028573;28;20023;-47
2023/08/05 10:48:42;;;;;;;4.78;2.47;;;23.60;82.70;;;;;;5028063;28;20025;-49
2023/08/05 10:51:08;;;;;;;4.82;2.13;;;23.50;81.30;;;;;;4993865;28;20014;-50
2023/08/05 10:53:35;;;;;;;4.53;2.30;;;23.10;81.70;;;;;;5026168;28;20034;-48
2023/08/05 10:56:00;;;;;;;4.28;2.65;;;22.90;82.60;;;;;;5027574;28;20018;-50
2023/08/05 10:58:30;;;;;;;3.55;2.30;;;22.70;84.40;;;;;;5027246;28;20080;-48
2023/08/05 11:00:57;;;;;;;3.40;2.67;;;22.60;83.90;;;;;;5027047;28;20025;-48
2023/08/05 11:03:31;;;;;;;4.28;2.55;;;22.30;85.00;;;;;;5027071;28;20037;-49
2023/08/05 11:06:02;;;;;;;4.25;2.15;;;21.90;83.70;;;;;;5009123;28;20028;-50
2023/08/05 11:08:27;;;;;;;5.35;2.78;;;21.80;83.90;;;;;;5027355;28;20079;-50
2023/08/05 11:10:53;;;;;;;5.50;2.70;;;21.60;87.30;;;;;;5028064;28;20033;-48
2023/08/05 11:13:18;;;;;;;5.47;2.67;;;21.60;87.50;;;;;;5027589;28;20134;-49
2023/08/05 11:16:06;;;;;;;4.88;2.50;;;21.50;88.00;;;;;;5027986;28;20379;-48
2023/08/05 11:18:32;;;;;;;5.53;2.47;;;21.60;88.60;;;;;;5028141;28;20025;-47
2023/08/05 11:20:58;;;;;;;4.45;2.50;;;21.70;87.90;;;;;;5028011;28;20022;-47
2023/08/05 11:23:25;;;;;;;3.35;2.25;;;21.60;86.00;;;;;;5027693;28;20034;-48
2023/08/05 11:25:52;;;;;;;7.45;2.85;;;21.60;86.40;;;;;;5025873;28;20144;-50
2023/08/05 11:28:18;;;;;;;6.65;2.78;;;21.80;87.10;;;;;;5028448;28;20017;-49
2023/08/05 11:30:44;;;;;;;4.07;2.28;;;21.90;86.30;;;;;;5028315;28;20018;-48
2023/08/05 11:33:09;;;;;;;3.70;2.97;;;22.00;86.30;;;;;;5010263;28;20030;-48
2023/08/05 11:35:46;;;;;;;4.32;2.70;;;22.00;86.80;;;;;;5028512;28;20373;-50
2023/08/05 11:38:18;;;;;;;5.32;2.55;;;22.00;84.90;;;;;;5028824;28;20029;-50
2023/08/05 11:41:04;;;;;;;5.18;2.33;;;22.10;84.50;;;;;;5028427;28;20014;-49
2023/08/05 11:43:31;;;;;;;4.97;2.88;;;22.10;84.60;;;;;;5027560;28;20176;-48
2023/08/05 11:45:58;;;;;;;3.25;2.40;;;22.30;84.90;;;;;;5010825;28;20036;-48
2023/08/05 11:48:27;;;;;;;4.32;2.95;;;22.40;87.20;;;;;;5028292;28;20075;-49
2023/08/05 11:51:10;;;;;;;5.53;2.20;;;22.40;87.80;;;;;;5028449;28;20025;-48
2023/08/05 11:53:47;;;;;;;4.20;2.60;;;22.70;86.40;;;;;;5027743;28;20024;-48
2023/08/05 11:56:22;;;;;;;4.07;2.40;;;23.50;85.50;;;;;;5028285;28;20391;-51
2023/08/05 11:58:47;;;;;;;8.50;3.13;;;24.90;84.70;;;;;;5028387;28;20025;-49
2023/08/05 12:01:13;;;;;;;3.33;2.15;;;25.70;81.80;;;;;;5028246;28;20024;-52
2023/08/05 12:03:38;;;;;;;4.53;2.58;;;26.00;80.30;;;;;;5028031;28;20056;-50
2023/08/05 12:06:04;;;;;;;3.90;2.65;;;26.10;79.40;;;;;;5028318;28;20017;-49
2023/08/05 12:08:42;;;;;;;4.82;2.78;;;26.00;77.50;;;;;;5010299;28;20022;-51
2023/08/05 12:11:08;;;;;;;2.67;2.35;;;25.70;78.60;;;;;;5028291;28;20204;-48
2023/08/05 12:13:36;;;;;;;4.95;2.80;;;25.30;79.10;;;;;;5027496;28;20030;-51
2023/08/05 12:16:18;;;;;;;5.40;3.05;;;25.20;81.10;;;;;;5028422;28;20014;-49
2023/08/05 12:18:45;;;;;;;4.55;2.80;;;25.10;81.80;;;;;;5028335;28;20523;-51
2023/08/05 12:21:11;;;;;;;7.30;3.40;;;25.50;82.10;;;;;;5028065;28;20092;-51
2023/08/05 12:23:40;;;;;;;4.05;2.70;;;25.90;81.70;;;;;;5027375;28;20024;-48
2023/08/05 12:26:07;;;;;;;4.50;3.43;;;26.10;81.30;;;;;;5028411;28;20024;-50
2023/08/05 12:28:32;;;;;;;6.97;3.08;;;26.20;76.60;;;;;;5030395;28;20294;-50
2023/08/05 12:30:58;;;;;;;4.85;3.25;;;26.30;76.30;;;;;;5031891;28;20357;-51
2023/08/05 12:33:23;;;;;;;3.97;2.85;;;26.20;80.10;;;;;;5031024;28;20064;-48
2023/08/05 12:35:49;;;;;;;7.65;3.15;;;26.20;78.00;;;;;;5031735;28;20095;-49
2023/08/05 12:38:15;;;;;;;5.82;3.35;;;26.20;77.70;;;;;;5031803;28;20018;-50
2023/08/05 12:40:40;;;;;;;6.90;3.85;;;26.40;80.20;;;;;;5031449;28;20022;-51
2023/08/05 12:43:06;;;;;;;7.15;4.28;;;26.20;73.10;;;;;;5031192;28;20014;-48
2023/08/05 12:45:31;;;;;;;5.05;4.00;;;25.70;76.30;;;;;;5031538;28;20515;-49